createdAt,value
2023-03-31T00:05:01.490Z,38.90
2023-03-31T00:10:16.602Z,38.90
2023-03-31T00:15:19.079Z,38.90
2023-03-31T00:20:20.492Z,38.90
2023-03-31T00:25:21.906Z,39.10
2023-03-31T00:30:23.312Z,38.90
2023-03-31T00:35:24.719Z,38.80
2023-03-31T00:40:26.143Z,38.90
2023-03-31T00:45:27.580Z,38.80
2023-03-31T00:50:29.159Z,38.80
2023-03-31T00:55:30.603Z,38.80
2023-03-31T01:00:32.021Z,38.80
2023-03-31T01:05:33.444Z,38.80
2023-03-31T01:10:34.878Z,38.80
2023-03-31T01:15:36.292Z,38.80
2023-03-31T01:20:37.706Z,38.70
2023-03-31T01:25:39.126Z,38.60
2023-03-31T01:30:40.537Z,38.70
2023-03-31T01:35:42.106Z,38.60
2023-03-31T01:40:43.557Z,38.60
2023-03-31T01:45:44.963Z,38.60
2023-03-31T01:50:46.374Z,38.70
2023-03-31T01:55:47.789Z,38.70
2023-03-31T02:00:49.199Z,38.60
2023-03-31T02:05:50.667Z,38.60
2023-03-31T02:10:52.080Z,38.60
2023-03-31T02:15:53.524Z,38.60
2023-03-31T02:20:54.974Z,38.60
2023-03-31T02:25:56.389Z,38.60
2023-03-31T02:30:57.808Z,38.60
2023-03-31T02:35:59.327Z,38.60
2023-03-31T02:41:00.862Z,38.50
2023-03-31T02:46:02.347Z,38.50
2023-03-31T02:51:03.797Z,38.50
2023-03-31T02:56:05.484Z,38.40
2023-03-31T03:01:07.178Z,38.40
2023-03-31T03:06:08.769Z,38.50
2023-03-31T03:11:10.306Z,38.40
2023-03-31T03:16:11.729Z,38.40
2023-03-31T03:21:13.180Z,38.40
2023-03-31T03:26:14.598Z,38.40
2023-03-31T03:31:16.067Z,38.50
2023-03-31T03:36:17.617Z,38.40
2023-03-31T03:41:19.032Z,38.40
2023-03-31T03:46:20.559Z,38.40
2023-03-31T03:51:22.003Z,38.40
2023-03-31T03:56:23.457Z,38.40
2023-03-31T04:01:24.878Z,38.40
2023-03-31T04:06:26.273Z,38.40
2023-03-31T04:11:27.709Z,38.50
2023-03-31T04:16:29.279Z,38.40
2023-03-31T04:21:30.812Z,38.40
2023-03-31T04:26:32.235Z,38.40
2023-03-31T04:31:35.918Z,38.40
2023-03-31T04:36:37.832Z,38.40
2023-03-31T04:41:39.257Z,38.40
2023-03-31T04:46:40.661Z,38.40
2023-03-31T04:51:42.077Z,38.40
2023-03-31T04:56:43.798Z,38.40
2023-03-31T05:01:45.446Z,38.40
2023-03-31T05:06:47.127Z,38.30
2023-03-31T05:11:48.521Z,38.40
2023-03-31T05:16:49.996Z,38.40
2023-03-31T05:21:51.512Z,38.40
2023-03-31T05:26:53.081Z,38.40
2023-03-31T05:31:54.565Z,38.30
2023-03-31T05:36:55.997Z,38.30
2023-03-31T05:41:57.400Z,38.30
2023-03-31T05:46:58.814Z,38.40
2023-03-31T05:52:00.235Z,38.40
2023-03-31T05:57:01.672Z,38.30
2023-03-31T06:02:03.206Z,38.40
2023-03-31T06:07:04.650Z,38.20
2023-03-31T06:12:06.072Z,38.40
2023-03-31T06:17:07.726Z,38.30
2023-03-31T06:22:09.217Z,38.30
2023-03-31T06:27:10.643Z,38.30
2023-03-31T06:32:12.196Z,38.30
2023-03-31T06:37:13.663Z,38.20
2023-03-31T06:42:15.133Z,38.20
2023-03-31T06:47:16.542Z,38.30
2023-03-31T06:52:17.984Z,38.20
2023-03-31T06:57:19.437Z,38.20
2023-03-31T07:02:20.921Z,38.20
2023-03-31T07:07:22.346Z,38.20
2023-03-31T07:12:23.816Z,38.20
2023-03-31T07:17:25.333Z,38.20
2023-03-31T07:22:26.843Z,38.20
2023-03-31T07:27:28.257Z,38.20
2023-03-31T07:32:29.699Z,38.20
2023-03-31T07:37:31.310Z,38.20
2023-03-31T07:42:32.740Z,38.20
2023-03-31T07:47:34.199Z,38.20
2023-03-31T07:52:35.644Z,38.20
2023-03-31T07:57:37.075Z,38.20
2023-03-31T08:02:38.605Z,38.20
2023-03-31T08:07:40.225Z,38.20
2023-03-31T08:12:41.635Z,38.50
2023-03-31T08:17:43.098Z,38.20
2023-03-31T08:22:44.520Z,38.20
2023-03-31T08:27:45.940Z,38.20
2023-03-31T08:32:47.360Z,38.20
2023-03-31T08:37:49.667Z,38.20
2023-03-31T08:42:51.078Z,38.20
2023-03-31T08:47:52.517Z,38.20
2023-03-31T08:52:53.984Z,38.20
2023-03-31T08:57:55.393Z,38.10
2023-03-31T09:02:56.879Z,38.20
2023-03-31T09:07:58.378Z,38.10
2023-03-31T09:12:59.788Z,38.20
2023-03-31T09:18:01.245Z,38.10
2023-03-31T09:23:02.680Z,38.20
2023-03-31T09:28:04.110Z,38.10
2023-03-31T09:33:05.545Z,38.10
2023-03-31T09:38:07.045Z,38.20
2023-03-31T09:43:08.482Z,38.10
2023-03-31T09:48:09.971Z,38.10
2023-03-31T09:53:11.393Z,38.10
2023-03-31T09:58:12.834Z,38.10
2023-03-31T10:03:14.266Z,38.10
2023-03-31T10:08:15.688Z,38.10
2023-03-31T10:13:17.099Z,38.10
2023-03-31T10:18:18.752Z,38.10
2023-03-31T10:23:20.208Z,38.10
2023-03-31T10:28:21.638Z,38.10
2023-03-31T10:33:23.535Z,38.10
2023-03-31T10:38:25.264Z,38.10
2023-03-31T10:43:26.667Z,38.10
2023-03-31T10:48:28.082Z,38.10
2023-03-31T10:53:29.536Z,38.10
2023-03-31T10:58:30.978Z,38.10
2023-03-31T11:03:32.508Z,38.10
2023-03-31T11:08:33.990Z,38.10
2023-03-31T11:13:35.403Z,38.10
2023-03-31T11:18:36.917Z,38.10
2023-03-31T11:23:38.350Z,38.10
2023-03-31T11:28:39.750Z,38.10
2023-03-31T11:33:41.184Z,38.10
2023-03-31T11:38:42.597Z,38.10
2023-03-31T11:43:44.046Z,38.10
2023-03-31T11:48:45.471Z,38.00
2023-03-31T11:53:46.867Z,38.00
2023-03-31T11:58:48.321Z,38.00
2023-03-31T12:03:49.809Z,38.10
2023-03-31T12:08:51.252Z,38.00
2023-03-31T12:13:52.657Z,38.10
2023-03-31T12:18:54.572Z,38.00
2023-03-31T12:23:56.012Z,38.10
2023-03-31T12:28:57.452Z,38.00
2023-03-31T12:33:58.883Z,38.00
2023-03-31T12:39:00.357Z,38.00
2023-03-31T12:44:01.772Z,38.00
2023-03-31T12:49:03.164Z,38.10
2023-03-31T12:54:04.615Z,38.00
2023-03-31T12:59:06.026Z,38.00
2023-03-31T13:04:07.437Z,38.00
2023-03-31T13:09:08.935Z,38.00
2023-03-31T13:14:10.374Z,38.00
2023-03-31T13:19:11.776Z,38.00
2023-03-31T13:24:13.505Z,38.00
2023-03-31T13:29:14.938Z,38.00
2023-03-31T13:34:16.413Z,38.00
2023-03-31T13:39:17.808Z,38.00
2023-03-31T13:44:19.238Z,38.00
2023-03-31T13:49:20.724Z,38.00
2023-03-31T13:54:22.170Z,38.00
2023-03-31T13:59:23.588Z,38.00
2023-03-31T14:04:25.054Z,38.00
2023-03-31T14:09:26.470Z,38.00
2023-03-31T14:14:27.890Z,38.00
2023-03-31T14:19:29.416Z,38.00
2023-03-31T14:24:31.885Z,37.90
2023-03-31T14:29:33.297Z,38.00
2023-03-31T14:34:34.783Z,37.90
2023-03-31T14:39:36.215Z,37.90
2023-03-31T14:44:37.642Z,37.90
2023-03-31T14:49:39.066Z,37.90
2023-03-31T14:54:40.577Z,37.90
2023-03-31T14:59:42.086Z,37.90
2023-03-31T15:04:43.541Z,37.90
2023-03-31T15:09:45.020Z,37.90
2023-03-31T15:14:46.469Z,38.00
2023-03-31T15:19:47.872Z,37.90
2023-03-31T15:24:49.298Z,37.90
2023-03-31T15:29:50.713Z,38.00
2023-03-31T15:34:52.159Z,38.00
2023-03-31T15:39:53.562Z,37.90
2023-03-31T15:44:54.976Z,38.00
2023-03-31T15:49:56.416Z,38.00
2023-03-31T15:54:57.825Z,37.80
2023-03-31T15:59:59.469Z,38.00
2023-03-31T16:05:01.634Z,37.90
2023-03-31T16:10:03.226Z,38.00
2023-03-31T16:15:04.638Z,38.00
2023-03-31T16:20:06.035Z,38.00
2023-03-31T16:25:07.467Z,38.00
2023-03-31T16:30:08.882Z,37.90
2023-03-31T16:35:10.304Z,37.90
2023-03-31T16:40:11.737Z,38.00
2023-03-31T16:45:14.778Z,38.60
2023-03-31T16:50:16.516Z,38.00
2023-03-31T16:55:17.960Z,37.90
2023-03-31T17:00:19.562Z,37.90
2023-03-31T17:05:21.034Z,38.00
2023-03-31T17:10:22.455Z,37.90
2023-03-31T17:15:23.861Z,37.90
2023-03-31T17:20:25.485Z,37.90
2023-03-31T17:25:26.954Z,37.90
2023-03-31T17:30:28.464Z,37.90
2023-03-31T17:35:29.863Z,38.00
2023-03-31T17:40:31.282Z,37.90
2023-03-31T17:45:32.713Z,37.90
2023-03-31T17:50:34.149Z,37.90
2023-03-31T17:55:35.628Z,37.90
2023-03-31T18:00:37.280Z,38.00
2023-03-31T18:05:38.781Z,37.90
2023-03-31T18:10:41.164Z,37.90
2023-03-31T18:15:42.818Z,37.90
2023-03-31T18:20:44.264Z,37.90
2023-03-31T18:25:45.721Z,37.90
2023-03-31T18:30:47.190Z,38.10
2023-03-31T18:35:48.715Z,38.20
2023-03-31T18:40:50.220Z,38.20
2023-03-31T18:45:51.860Z,38.40
2023-03-31T18:50:53.405Z,38.60
2023-03-31T18:55:55.235Z,38.70
2023-03-31T19:00:56.966Z,38.50
2023-03-31T19:05:58.403Z,38.80
2023-03-31T19:10:59.826Z,38.80
2023-03-31T19:16:01.257Z,39.00
2023-03-31T19:21:02.683Z,39.00
2023-03-31T19:26:04.115Z,39.10
2023-03-31T19:31:05.533Z,39.20
2023-03-31T19:36:06.951Z,39.30
2023-03-31T19:41:08.446Z,39.30
2023-03-31T19:46:09.998Z,39.40
2023-03-31T19:51:11.533Z,39.30
2023-03-31T19:56:13.006Z,39.10
2023-03-31T20:01:14.455Z,39.00
2023-03-31T20:06:15.887Z,39.00
2023-03-31T20:11:17.352Z,39.00
2023-03-31T20:16:18.916Z,39.00
2023-03-31T20:21:20.440Z,38.80
2023-03-31T20:26:21.853Z,38.90
2023-03-31T20:31:23.334Z,39.00
2023-03-31T20:36:24.751Z,38.90
2023-03-31T20:41:26.154Z,38.90
2023-03-31T20:46:27.621Z,39.10
2023-03-31T20:51:29.064Z,39.40
2023-03-31T20:56:30.488Z,39.30
2023-03-31T21:01:31.958Z,39.50
2023-03-31T21:06:33.432Z,39.60
2023-03-31T21:11:34.853Z,39.70
2023-03-31T21:16:36.321Z,39.70
2023-03-31T21:21:37.761Z,39.70
2023-03-31T21:26:39.176Z,39.80
2023-03-31T21:31:40.708Z,39.90
2023-03-31T21:36:42.245Z,39.80
2023-03-31T21:41:43.679Z,40.00
2023-03-31T21:46:45.222Z,39.80
2023-03-31T21:51:46.685Z,39.50
2023-03-31T21:56:48.093Z,39.60
2023-03-31T22:01:49.534Z,39.40
2023-03-31T22:06:50.949Z,39.80
2023-03-31T22:11:52.354Z,39.90
2023-03-31T22:16:53.755Z,39.80
2023-03-31T22:21:55.152Z,40.30
2023-03-31T22:26:56.548Z,39.70
2023-03-31T22:31:58.055Z,39.70
2023-03-31T22:36:59.525Z,39.80
2023-03-31T22:42:00.989Z,39.70
2023-03-31T22:47:02.518Z,39.70
2023-03-31T22:52:03.968Z,39.60
2023-03-31T22:57:05.453Z,39.60
2023-03-31T23:02:06.890Z,39.70
2023-03-31T23:07:08.329Z,39.90
2023-03-31T23:12:09.753Z,40.00
2023-03-31T23:17:11.172Z,40.20
2023-03-31T23:22:12.721Z,40.40
2023-03-31T23:27:14.149Z,40.20
2023-03-31T23:32:15.737Z,40.20
2023-03-31T23:37:17.212Z,40.20
2023-03-31T23:42:19.517Z,40.20
2023-03-31T23:47:20.926Z,40.40
2023-03-31T23:52:22.342Z,40.40
2023-03-31T23:57:23.790Z,40.60
